sensor_id;sensor_type;location;lat;lon;timestamp;P1;durP1;ratioP1;P2;durP2;ratioP2
10902;SDS011;5504;47.312;11.060;2023-02-18T00:01:19;1.10;;;1.00;;
10902;SDS011;5504;47.312;11.060;2023-02-18T00:03:46;1.63;;;1.10;;
10902;SDS011;5504;47.312;11.060;2023-02-18T00:06:13;0.70;;;0.70;;
10902;SDS011;5504;47.312;11.060;2023-02-18T00:08:40;1.40;;;1.00;;
10902;SDS011;5504;47.312;11.060;2023-02-18T00:11:07;1.00;;;0.90;;
10902;SDS011;5504;47.312;11.060;2023-02-18T00:13:33;1.70;;;0.90;;
10902;SDS011;5504;47.312;11.060;2023-02-18T00:16:03;1.00;;;0.90;;
10902;SDS011;5504;47.312;11.060;2023-02-18T00:18:31;1.30;;;0.93;;
10902;SDS011;5504;47.312;11.060;2023-02-18T00:20:57;1.30;;;1.00;;
10902;SDS011;5504;47.312;11.060;2023-02-18T00:23:22;1.17;;;1.03;;
10902;SDS011;5504;47.312;11.060;2023-02-18T00:25:49;0.93;;;0.93;;
10902;SDS011;5504;47.312;11.060;2023-02-18T00:28:14;0.80;;;0.80;;
10902;SDS011;5504;47.312;11.060;2023-02-18T00:30:41;1.00;;;0.80;;
10902;SDS011;5504;47.312;11.060;2023-02-18T00:33:07;0.90;;;0.80;;
10902;SDS011;5504;47.312;11.060;2023-02-18T00:35:33;0.80;;;0.80;;
10902;SDS011;5504;47.312;11.060;2023-02-18T00:37:59;1.10;;;0.90;;
10902;SDS011;5504;47.312;11.060;2023-02-18T00:40:25;1.53;;;1.03;;
10902;SDS011;5504;47.312;11.060;2023-02-18T00:42:50;1.70;;;1.23;;
10902;SDS011;5504;47.312;11.060;2023-02-18T00:45:16;1.20;;;1.10;;
10902;SDS011;5504;47.312;11.060;2023-02-18T00:47:42;1.40;;;1.20;;
10902;SDS011;5504;47.312;11.060;2023-02-18T00:50:08;1.43;;;1.10;;
10902;SDS011;5504;47.312;11.060;2023-02-18T00:52:34;1.20;;;0.87;;
10902;SDS011;5504;47.312;11.060;2023-02-18T00:55:00;1.63;;;1.13;;
10902;SDS011;5504;47.312;11.060;2023-02-18T00:57:26;1.30;;;0.90;;
10902;SDS011;5504;47.312;11.060;2023-02-18T00:59:51;1.33;;;1.20;;
10902;SDS011;5504;47.312;11.060;2023-02-18T01:02:17;1.67;;;1.17;;
10902;SDS011;5504;47.312;11.060;2023-02-18T01:04:43;1.47;;;1.20;;
10902;SDS011;5504;47.312;11.060;2023-02-18T01:07:08;1.83;;;0.90;;
10902;SDS011;5504;47.312;11.060;2023-02-18T01:09:35;1.23;;;1.00;;
10902;SDS011;5504;47.312;11.060;2023-02-18T01:12:00;1.77;;;1.20;;
10902;SDS011;5504;47.312;11.060;2023-02-18T01:14:27;1.50;;;1.37;;
10902;SDS011;5504;47.312;11.060;2023-02-18T01:16:52;1.17;;;1.10;;
10902;SDS011;5504;47.312;11.060;2023-02-18T01:19:18;1.13;;;1.03;;
10902;SDS011;5504;47.312;11.060;2023-02-18T01:21:44;1.53;;;1.30;;
10902;SDS011;5504;47.312;11.060;2023-02-18T01:24:09;1.37;;;1.27;;
10902;SDS011;5504;47.312;11.060;2023-02-18T01:26:35;1.83;;;1.40;;
10902;SDS011;5504;47.312;11.060;2023-02-18T01:29:00;1.90;;;1.30;;
10902;SDS011;5504;47.312;11.060;2023-02-18T01:31:26;1.93;;;1.20;;
10902;SDS011;5504;47.312;11.060;2023-02-18T01:33:52;1.27;;;1.17;;
10902;SDS011;5504;47.312;11.060;2023-02-18T01:36:17;1.93;;;1.30;;
10902;SDS011;5504;47.312;11.060;2023-02-18T01:38:43;2.20;;;1.47;;
10902;SDS011;5504;47.312;11.060;2023-02-18T01:41:09;1.47;;;1.20;;
10902;SDS011;5504;47.312;11.060;2023-02-18T01:43:35;1.60;;;1.10;;
10902;SDS011;5504;47.312;11.060;2023-02-18T01:46:22;1.53;;;1.40;;
10902;SDS011;5504;47.312;11.060;2023-02-18T01:48:54;1.83;;;1.60;;
10902;SDS011;5504;47.312;11.060;2023-02-18T01:51:26;2.00;;;1.80;;
10902;SDS011;5504;47.312;11.060;2023-02-18T01:56:23;1.63;;;1.50;;
10902;SDS011;5504;47.312;11.060;2023-02-18T01:58:53;1.77;;;1.57;;
10902;SDS011;5504;47.312;11.060;2023-02-18T02:01:21;2.03;;;1.70;;
10902;SDS011;5504;47.312;11.060;2023-02-18T02:03:47;2.53;;;1.60;;
10902;SDS011;5504;47.312;11.060;2023-02-18T02:06:14;1.70;;;1.60;;
10902;SDS011;5504;47.312;11.060;2023-02-18T02:08:43;2.27;;;1.50;;
10902;SDS011;5504;47.312;11.060;2023-02-18T02:11:16;1.67;;;1.50;;
10902;SDS011;5504;47.312;11.060;2023-02-18T02:35:45;1.50;;;1.40;;
10902;SDS011;5504;47.312;11.060;2023-02-18T02:38:18;1.73;;;1.50;;
10902;SDS011;5504;47.312;11.060;2023-02-18T02:40:54;1.90;;;1.70;;
10902;SDS011;5504;47.312;11.060;2023-02-18T02:43:36;2.60;;;1.50;;
10902;SDS011;5504;47.312;11.060;2023-02-18T02:46:44;2.53;;;1.60;;
10902;SDS011;5504;47.312;11.060;2023-02-18T02:49:16;2.63;;;1.70;;
10902;SDS011;5504;47.312;11.060;2023-02-18T02:52:04;1.77;;;1.40;;
10902;SDS011;5504;47.312;11.060;2023-02-18T02:54:34;1.43;;;1.33;;
10902;SDS011;5504;47.312;11.060;2023-02-18T02:59:54;1.77;;;1.40;;
10902;SDS011;5504;47.312;11.060;2023-02-18T03:08:37;1.40;;;1.30;;
10902;SDS011;5504;47.312;11.060;2023-02-18T03:11:12;1.70;;;1.10;;
10902;SDS011;5504;47.312;11.060;2023-02-18T03:17:04;1.13;;;1.03;;
10902;SDS011;5504;47.312;11.060;2023-02-18T03:19:49;1.00;;;0.90;;
10902;SDS011;5504;47.312;11.060;2023-02-18T03:22:20;1.57;;;1.30;;
10902;SDS011;5504;47.312;11.060;2023-02-18T03:24:55;1.47;;;1.10;;
10902;SDS011;5504;47.312;11.060;2023-02-18T03:27:22;1.20;;;1.10;;
10902;SDS011;5504;47.312;11.060;2023-02-18T03:29:58;1.60;;;1.20;;
10902;SDS011;5504;47.312;11.060;2023-02-18T03:32:31;2.10;;;1.20;;
10902;SDS011;5504;47.312;11.060;2023-02-18T03:35:01;1.20;;;1.10;;
10902;SDS011;5504;47.312;11.060;2023-02-18T03:37:32;1.53;;;1.00;;
10902;SDS011;5504;47.312;11.060;2023-02-18T03:40:02;1.30;;;1.20;;
10902;SDS011;5504;47.312;11.060;2023-02-18T03:42:29;2.07;;;1.10;;
10902;SDS011;5504;47.312;11.060;2023-02-18T03:44:55;1.33;;;0.90;;
10902;SDS011;5504;47.312;11.060;2023-02-18T03:47:20;1.47;;;0.93;;
10902;SDS011;5504;47.312;11.060;2023-02-18T03:49:47;1.90;;;1.10;;
10902;SDS011;5504;47.312;11.060;2023-02-18T03:52:12;1.33;;;0.90;;
10902;SDS011;5504;47.312;11.060;2023-02-18T03:54:38;1.10;;;1.00;;
10902;SDS011;5504;47.312;11.060;2023-02-18T03:57:04;1.10;;;1.00;;
10902;SDS011;5504;47.312;11.060;2023-02-18T03:59:29;1.57;;;0.97;;
10902;SDS011;5504;47.312;11.060;2023-02-18T04:01:55;1.77;;;0.90;;
10902;SDS011;5504;47.312;11.060;2023-02-18T04:04:21;1.53;;;0.90;;
10902;SDS011;5504;47.312;11.060;2023-02-18T04:06:46;6.70;;;1.30;;
10902;SDS011;5504;47.312;11.060;2023-02-18T04:09:12;2.33;;;1.03;;
10902;SDS011;5504;47.312;11.060;2023-02-18T04:11:38;1.20;;;1.10;;
10902;SDS011;5504;47.312;11.060;2023-02-18T04:14:05;1.67;;;1.00;;
10902;SDS011;5504;47.312;11.060;2023-02-18T04:16:31;1.10;;;1.00;;
10902;SDS011;5504;47.312;11.060;2023-02-18T04:18:57;1.47;;;1.30;;
10902;SDS011;5504;47.312;11.060;2023-02-18T04:21:23;1.00;;;1.00;;
10902;SDS011;5504;47.312;11.060;2023-02-18T04:23:48;1.07;;;0.97;;
10902;SDS011;5504;47.312;11.060;2023-02-18T04:26:14;2.27;;;1.00;;
10902;SDS011;5504;47.312;11.060;2023-02-18T04:28:40;1.03;;;0.90;;
10902;SDS011;5504;47.312;11.060;2023-02-18T04:31:06;1.50;;;1.00;;
10902;SDS011;5504;47.312;11.060;2023-02-18T04:33:31;1.33;;;1.07;;
10902;SDS011;5504;47.312;11.060;2023-02-18T04:35:57;1.33;;;1.00;;
10902;SDS011;5504;47.312;11.060;2023-02-18T04:38:23;1.13;;;1.00;;
10902;SDS011;5504;47.312;11.060;2023-02-18T04:40:48;1.20;;;1.00;;
10902;SDS011;5504;47.312;11.060;2023-02-18T04:43:14;1.33;;;0.93;;
10902;SDS011;5504;47.312;11.060;2023-02-18T04:45:40;1.30;;;1.00;;
10902;SDS011;5504;47.312;11.060;2023-02-18T04:48:06;0.97;;;0.87;;
10902;SDS011;5504;47.312;11.060;2023-02-18T04:50:33;0.83;;;0.80;;
10902;SDS011;5504;47.312;11.060;2023-02-18T04:52:59;0.83;;;0.80;;
10902;SDS011;5504;47.312;11.060;2023-02-18T04:55:25;1.13;;;0.90;;
10902;SDS011;5504;47.312;11.060;2023-02-18T04:57:50;1.10;;;0.80;;
10902;SDS011;5504;47.312;11.060;2023-02-18T05:00:17;1.10;;;0.90;;
10902;SDS011;5504;47.312;11.060;2023-02-18T05:02:43;1.20;;;1.10;;
10902;SDS011;5504;47.312;11.060;2023-02-18T05:05:09;1.40;;;0.83;;
10902;SDS011;5504;47.312;11.060;2023-02-18T05:07:35;1.57;;;0.80;;
10902;SDS011;5504;47.312;11.060;2023-02-18T05:10:01;0.80;;;0.70;;
10902;SDS011;5504;47.312;11.060;2023-02-18T05:12:27;0.90;;;0.70;;
10902;SDS011;5504;47.312;11.060;2023-02-18T05:14:53;1.90;;;1.07;;
10902;SDS011;5504;47.312;11.060;2023-02-18T05:17:19;1.10;;;0.90;;
10902;SDS011;5504;47.312;11.060;2023-02-18T05:19:44;1.37;;;1.00;;
10902;SDS011;5504;47.312;11.060;2023-02-18T05:22:10;1.20;;;1.00;;
10902;SDS011;5504;47.312;11.060;2023-02-18T05:24:35;0.80;;;0.80;;
10902;SDS011;5504;47.312;11.060;2023-02-18T05:27:01;0.90;;;0.80;;
10902;SDS011;5504;47.312;11.060;2023-02-18T05:29:27;1.00;;;0.90;;
10902;SDS011;5504;47.312;11.060;2023-02-18T05:31:53;0.77;;;0.77;;
10902;SDS011;5504;47.312;11.060;2023-02-18T05:34:19;0.73;;;0.73;;
10902;SDS011;5504;47.312;11.060;2023-02-18T05:36:44;0.87;;;0.70;;
10902;SDS011;5504;47.312;11.060;2023-02-18T05:39:10;0.83;;;0.63;;
10902;SDS011;5504;47.312;11.060;2023-02-18T05:41:36;2.13;;;0.80;;
10902;SDS011;5504;47.312;11.060;2023-02-18T05:44:01;0.87;;;0.80;;
10902;SDS011;5504;47.312;11.060;2023-02-18T05:46:46;1.00;;;0.80;;
10902;SDS011;5504;47.312;11.060;2023-02-18T05:49:11;0.70;;;0.70;;
10902;SDS011;5504;47.312;11.060;2023-02-18T05:51:37;0.97;;;0.87;;
10902;SDS011;5504;47.312;11.060;2023-02-18T05:54:03;1.33;;;0.90;;
10902;SDS011;5504;47.312;11.060;2023-02-18T05:56:29;1.10;;;0.80;;
10902;SDS011;5504;47.312;11.060;2023-02-18T05:58:54;0.90;;;0.70;;
10902;SDS011;5504;47.312;11.060;2023-02-18T06:01:20;1.10;;;0.90;;
10902;SDS011;5504;47.312;11.060;2023-02-18T06:03:46;0.73;;;0.73;;
10902;SDS011;5504;47.312;11.060;2023-02-18T06:06:11;0.90;;;0.90;;
10902;SDS011;5504;47.312;11.060;2023-02-18T06:08:37;1.07;;;0.80;;
10902;SDS011;5504;47.312;11.060;2023-02-18T06:11:03;1.10;;;0.90;;
10902;SDS011;5504;47.312;11.060;2023-02-18T06:13:28;0.80;;;0.80;;
10902;SDS011;5504;47.312;11.060;2023-02-18T06:15:54;0.67;;;0.67;;
10902;SDS011;5504;47.312;11.060;2023-02-18T06:18:20;0.80;;;0.60;;
10902;SDS011;5504;47.312;11.060;2023-02-18T06:20:46;1.30;;;0.80;;
10902;SDS011;5504;47.312;11.060;2023-02-18T06:23:13;1.10;;;0.80;;
10902;SDS011;5504;47.312;11.060;2023-02-18T06:25:39;2.00;;;0.80;;
10902;SDS011;5504;47.312;11.060;2023-02-18T06:28:06;1.00;;;0.87;;
10902;SDS011;5504;47.312;11.060;2023-02-18T06:30:32;0.97;;;0.80;;
10902;SDS011;5504;47.312;11.060;2023-02-18T06:32:57;2.43;;;0.87;;
10902;SDS011;5504;47.312;11.060;2023-02-18T06:35:23;1.10;;;0.80;;
10902;SDS011;5504;47.312;11.060;2023-02-18T06:37:49;0.80;;;0.80;;
10902;SDS011;5504;47.312;11.060;2023-02-18T06:40:15;1.03;;;0.80;;
10902;SDS011;5504;47.312;11.060;2023-02-18T06:42:42;1.80;;;0.90;;
10902;SDS011;5504;47.312;11.060;2023-02-18T06:45:08;1.47;;;0.93;;
10902;SDS011;5504;47.312;11.060;2023-02-18T06:47:34;0.70;;;0.70;;
10902;SDS011;5504;47.312;11.060;2023-02-18T06:49:59;1.07;;;0.60;;
10902;SDS011;5504;47.312;11.060;2023-02-18T06:52:25;1.20;;;0.80;;
10902;SDS011;5504;47.312;11.060;2023-02-18T06:54:51;0.80;;;0.80;;
10902;SDS011;5504;47.312;11.060;2023-02-18T06:57:17;0.90;;;0.80;;
10902;SDS011;5504;47.312;11.060;2023-02-18T06:59:42;0.70;;;0.70;;
10902;SDS011;5504;47.312;11.060;2023-02-18T07:02:17;1.10;;;0.80;;
10902;SDS011;5504;47.312;11.060;2023-02-18T07:04:42;1.00;;;0.70;;
10902;SDS011;5504;47.312;11.060;2023-02-18T07:07:10;0.97;;;0.87;;
10902;SDS011;5504;47.312;11.060;2023-02-18T07:09:35;1.50;;;1.10;;
10902;SDS011;5504;47.312;11.060;2023-02-18T07:12:01;0.90;;;0.80;;
10902;SDS011;5504;47.312;11.060;2023-02-18T07:14:27;1.10;;;0.90;;
10902;SDS011;5504;47.312;11.060;2023-02-18T07:16:53;1.17;;;0.90;;
10902;SDS011;5504;47.312;11.060;2023-02-18T07:19:19;1.93;;;0.90;;
10902;SDS011;5504;47.312;11.060;2023-02-18T07:21:45;1.10;;;0.90;;
10902;SDS011;5504;47.312;11.060;2023-02-18T07:24:10;1.43;;;0.83;;
10902;SDS011;5504;47.312;11.060;2023-02-18T07:26:36;1.33;;;0.93;;
10902;SDS011;5504;47.312;11.060;2023-02-18T07:29:01;0.90;;;0.90;;
10902;SDS011;5504;47.312;11.060;2023-02-18T07:31:27;1.80;;;1.70;;
10902;SDS011;5504;47.312;11.060;2023-02-18T07:33:53;5.20;;;4.10;;
10902;SDS011;5504;47.312;11.060;2023-02-18T07:36:18;6.27;;;5.07;;
10902;SDS011;5504;47.312;11.060;2023-02-18T07:38:44;6.70;;;5.27;;
10902;SDS011;5504;47.312;11.060;2023-02-18T07:41:13;10.47;;;7.30;;
10902;SDS011;5504;47.312;11.060;2023-02-18T07:43:42;8.73;;;6.60;;
10902;SDS011;5504;47.312;11.060;2023-02-18T07:46:08;11.23;;;8.57;;
10902;SDS011;5504;47.312;11.060;2023-02-18T07:48:34;9.53;;;7.67;;
10902;SDS011;5504;47.312;11.060;2023-02-18T07:51:00;11.33;;;8.63;;
10902;SDS011;5504;47.312;11.060;2023-02-18T07:53:30;11.40;;;9.73;;
10902;SDS011;5504;47.312;11.060;2023-02-18T07:55:57;11.13;;;9.47;;
10902;SDS011;5504;47.312;11.060;2023-02-18T07:58:28;12.57;;;9.63;;
10902;SDS011;5504;47.312;11.060;2023-02-18T08:00:55;11.27;;;9.73;;
10902;SDS011;5504;47.312;11.060;2023-02-18T08:03:26;13.37;;;10.83;;
10902;SDS011;5504;47.312;11.060;2023-02-18T08:05:54;18.37;;;14.50;;
10902;SDS011;5504;47.312;11.060;2023-02-18T08:08:22;13.80;;;11.30;;
10902;SDS011;5504;47.312;11.060;2023-02-18T08:10:49;11.63;;;9.73;;
10902;SDS011;5504;47.312;11.060;2023-02-18T08:13:16;18.73;;;13.40;;
10902;SDS011;5504;47.312;11.060;2023-02-18T08:15:42;13.73;;;11.30;;
10902;SDS011;5504;47.312;11.060;2023-02-18T08:18:09;9.27;;;7.60;;
10902;SDS011;5504;47.312;11.060;2023-02-18T08:20:40;9.80;;;7.87;;
10902;SDS011;5504;47.312;11.060;2023-02-18T08:23:06;8.13;;;7.17;;
10902;SDS011;5504;47.312;11.060;2023-02-18T08:25:32;7.80;;;7.00;;
10902;SDS011;5504;47.312;11.060;2023-02-18T08:27:58;6.60;;;5.90;;
10902;SDS011;5504;47.312;11.060;2023-02-18T08:30:23;5.53;;;4.97;;
10902;SDS011;5504;47.312;11.060;2023-02-18T08:32:49;5.67;;;5.03;;
10902;SDS011;5504;47.312;11.060;2023-02-18T08:35:16;7.83;;;5.93;;
10902;SDS011;5504;47.312;11.060;2023-02-18T08:37:41;5.60;;;5.10;;
10902;SDS011;5504;47.312;11.060;2023-02-18T08:40:08;7.37;;;5.27;;
10902;SDS011;5504;47.312;11.060;2023-02-18T08:42:35;5.70;;;5.10;;
10902;SDS011;5504;47.312;11.060;2023-02-18T08:45:01;5.43;;;3.70;;
10902;SDS011;5504;47.312;11.060;2023-02-18T08:47:27;2.67;;;2.47;;
10902;SDS011;5504;47.312;11.060;2023-02-18T08:49:52;4.30;;;3.30;;
10902;SDS011;5504;47.312;11.060;2023-02-18T08:52:19;2.97;;;2.67;;
10902;SDS011;5504;47.312;11.060;2023-02-18T08:54:45;2.93;;;2.63;;
10902;SDS011;5504;47.312;11.060;2023-02-18T08:57:10;4.00;;;3.40;;
10902;SDS011;5504;47.312;11.060;2023-02-18T08:59:36;4.70;;;4.20;;
10902;SDS011;5504;47.312;11.060;2023-02-18T09:02:02;3.93;;;3.53;;
10902;SDS011;5504;47.312;11.060;2023-02-18T09:04:27;5.27;;;3.27;;
10902;SDS011;5504;47.312;11.060;2023-02-18T09:06:53;5.57;;;3.67;;
10902;SDS011;5504;47.312;11.060;2023-02-18T09:09:19;4.60;;;3.83;;
10902;SDS011;5504;47.312;11.060;2023-02-18T09:11:45;5.10;;;3.80;;
10902;SDS011;5504;47.312;11.060;2023-02-18T09:14:11;5.67;;;3.90;;
10902;SDS011;5504;47.312;11.060;2023-02-18T09:16:37;4.60;;;3.40;;
10902;SDS011;5504;47.312;11.060;2023-02-18T09:19:04;5.53;;;3.33;;
10902;SDS011;5504;47.312;11.060;2023-02-18T09:21:30;4.43;;;2.53;;
10902;SDS011;5504;47.312;11.060;2023-02-18T09:23:56;4.47;;;2.93;;
10902;SDS011;5504;47.312;11.060;2023-02-18T09:26:22;5.43;;;3.37;;
10902;SDS011;5504;47.312;11.060;2023-02-18T09:28:49;4.17;;;2.77;;
10902;SDS011;5504;47.312;11.060;2023-02-18T09:31:17;3.30;;;2.70;;
10902;SDS011;5504;47.312;11.060;2023-02-18T09:33:46;3.73;;;3.03;;
10902;SDS011;5504;47.312;11.060;2023-02-18T09:36:14;4.27;;;3.50;;
10902;SDS011;5504;47.312;11.060;2023-02-18T09:38:41;5.23;;;3.20;;
10902;SDS011;5504;47.312;11.060;2023-02-18T09:41:09;3.53;;;3.10;;
10902;SDS011;5504;47.312;11.060;2023-02-18T09:44:04;4.00;;;3.50;;
10902;SDS011;5504;47.312;11.060;2023-02-18T09:46:37;6.33;;;3.90;;
10902;SDS011;5504;47.312;11.060;2023-02-18T09:49:06;4.33;;;3.10;;
10902;SDS011;5504;47.312;11.060;2023-02-18T09:51:39;3.10;;;2.53;;
10902;SDS011;5504;47.312;11.060;2023-02-18T09:54:07;5.37;;;2.70;;
10902;SDS011;5504;47.312;11.060;2023-02-18T09:56:38;4.37;;;2.50;;
10902;SDS011;5504;47.312;11.060;2023-02-18T09:59:06;2.90;;;2.43;;
10902;SDS011;5504;47.312;11.060;2023-02-18T10:01:38;3.03;;;2.57;;
10902;SDS011;5504;47.312;11.060;2023-02-18T10:04:16;4.60;;;3.13;;
10902;SDS011;5504;47.312;11.060;2023-02-18T10:06:54;4.77;;;3.13;;
10902;SDS011;5504;47.312;11.060;2023-02-18T10:09:24;3.13;;;2.40;;
10902;SDS011;5504;47.312;11.060;2023-02-18T10:11:55;4.40;;;3.07;;
10902;SDS011;5504;47.312;11.060;2023-02-18T10:14:24;5.87;;;2.87;;
10902;SDS011;5504;47.312;11.060;2023-02-18T10:16:50;2.50;;;2.30;;
10902;SDS011;5504;47.312;11.060;2023-02-18T10:19:19;2.47;;;2.13;;
10902;SDS011;5504;47.312;11.060;2023-02-18T10:21:48;2.60;;;2.23;;
10902;SDS011;5504;47.312;11.060;2023-02-18T10:26:53;3.63;;;2.53;;
10902;SDS011;5504;47.312;11.060;2023-02-18T10:29:20;3.13;;;2.13;;
10902;SDS011;5504;47.312;11.060;2023-02-18T10:31:50;2.33;;;2.07;;
10902;SDS011;5504;47.312;11.060;2023-02-18T10:34:29;3.27;;;2.00;;
10902;SDS011;5504;47.312;11.060;2023-02-18T10:37:10;2.73;;;2.13;;
10902;SDS011;5504;47.312;11.060;2023-02-18T10:43:00;4.57;;;2.15;;
10902;SDS011;5504;47.312;11.060;2023-02-18T10:51:14;3.30;;;2.08;;
10902;SDS011;5504;47.312;11.060;2023-02-18T10:53:44;3.72;;;1.90;;
10902;SDS011;5504;47.312;11.060;2023-02-18T10:56:30;2.13;;;1.88;;
10902;SDS011;5504;47.312;11.060;2023-02-18T10:59:08;2.53;;;1.80;;
10902;SDS011;5504;47.312;11.060;2023-02-18T11:01:38;2.17;;;1.92;;
10902;SDS011;5504;47.312;11.060;2023-02-18T11:06:44;1.70;;;1.60;;
10902;SDS011;5504;47.312;11.060;2023-02-18T11:11:57;1.70;;;1.55;;
10902;SDS011;5504;47.312;11.060;2023-02-18T11:14:38;3.43;;;1.70;;
10902;SDS011;5504;47.312;11.060;2023-02-18T11:17:13;2.47;;;1.60;;
10902;SDS011;5504;47.312;11.060;2023-02-18T11:19:40;2.03;;;1.70;;
10902;SDS011;5504;47.312;11.060;2023-02-18T11:22:20;2.90;;;2.10;;
10902;SDS011;5504;47.312;11.060;2023-02-18T11:24:52;2.23;;;2.03;;
10902;SDS011;5504;47.312;11.060;2023-02-18T11:27:25;3.08;;;2.40;;
10902;SDS011;5504;47.312;11.060;2023-02-18T11:30:01;2.13;;;1.85;;
10902;SDS011;5504;47.312;11.060;2023-02-18T11:32:40;4.05;;;2.60;;
10902;SDS011;5504;47.312;11.060;2023-02-18T11:35:06;3.73;;;2.80;;
10902;SDS011;5504;47.312;11.060;2023-02-18T11:37:45;5.73;;;3.40;;
10902;SDS011;5504;47.312;11.060;2023-02-18T11:40:19;3.55;;;3.15;;
10902;SDS011;5504;47.312;11.060;2023-02-18T11:42:48;4.28;;;2.88;;
10902;SDS011;5504;47.312;11.060;2023-02-18T11:45:27;3.95;;;2.80;;
10902;SDS011;5504;47.312;11.060;2023-02-18T11:47:58;3.75;;;2.40;;
10902;SDS011;5504;47.312;11.060;2023-02-18T11:50:25;3.95;;;2.00;;
10902;SDS011;5504;47.312;11.060;2023-02-18T11:52:56;2.00;;;1.83;;
10902;SDS011;5504;47.312;11.060;2023-02-18T11:55:24;3.50;;;1.90;;
10902;SDS011;5504;47.312;11.060;2023-02-18T12:03:27;2.50;;;1.77;;
10902;SDS011;5504;47.312;11.060;2023-02-18T12:06:22;2.65;;;1.80;;
10902;SDS011;5504;47.312;11.060;2023-02-18T12:08:53;2.28;;;1.70;;
10902;SDS011;5504;47.312;11.060;2023-02-18T12:11:36;3.15;;;2.00;;
10902;SDS011;5504;47.312;11.060;2023-02-18T12:14:13;2.00;;;1.80;;
10902;SDS011;5504;47.312;11.060;2023-02-18T12:20:02;2.13;;;1.92;;
10902;SDS011;5504;47.312;11.060;2023-02-18T12:23:04;4.25;;;1.80;;
10902;SDS011;5504;47.312;11.060;2023-02-18T12:26:01;3.05;;;2.03;;
10902;SDS011;5504;47.312;11.060;2023-02-18T12:55:54;0.60;;;0.40;;
10902;SDS011;5504;47.312;11.060;2023-02-18T12:58:41;1.00;;;0.30;;
10902;SDS011;5504;47.312;11.060;2023-02-18T13:17:45;0.30;;;0.30;;
10902;SDS011;5504;47.312;11.060;2023-02-18T13:23:02;0.30;;;0.30;;
10902;SDS011;5504;47.312;11.060;2023-02-18T13:25:33;1.48;;;0.40;;
10902;SDS011;5504;47.312;11.060;2023-02-18T13:30:43;1.13;;;0.47;;
10902;SDS011;5504;47.312;11.060;2023-02-18T13:33:21;2.92;;;0.38;;
10902;SDS011;5504;47.312;11.060;2023-02-18T13:41:03;2.42;;;0.40;;
10902;SDS011;5504;47.312;11.060;2023-02-18T13:43:30;1.27;;;0.40;;
10902;SDS011;5504;47.312;11.060;2023-02-18T13:48:26;0.63;;;0.43;;
10902;SDS011;5504;47.312;11.060;2023-02-18T13:50:53;0.80;;;0.25;;
10902;SDS011;5504;47.312;11.060;2023-02-18T13:53:24;1.20;;;0.30;;
10902;SDS011;5504;47.312;11.060;2023-02-18T13:55:57;0.30;;;0.30;;
10902;SDS011;5504;47.312;11.060;2023-02-18T13:58:37;0.40;;;0.40;;
10902;SDS011;5504;47.312;11.060;2023-02-18T14:01:13;0.95;;;0.25;;
10902;SDS011;5504;47.312;11.060;2023-02-18T14:06:28;0.60;;;0.45;;
10902;SDS011;5504;47.312;11.060;2023-02-18T14:11:39;0.70;;;0.40;;
10902;SDS011;5504;47.312;11.060;2023-02-18T14:19:42;0.20;;;0.20;;
10902;SDS011;5504;47.312;11.060;2023-02-18T14:22:33;0.77;;;0.30;;
10902;SDS011;5504;47.312;11.060;2023-02-18T14:27:39;0.52;;;0.40;;
10902;SDS011;5504;47.312;11.060;2023-02-18T14:30:07;0.85;;;0.40;;
10902;SDS011;5504;47.312;11.060;2023-02-18T14:32:43;0.38;;;0.30;;
10902;SDS011;5504;47.312;11.060;2023-02-18T14:40:26;1.23;;;0.40;;
10902;SDS011;5504;47.312;11.060;2023-02-18T14:46:11;0.47;;;0.22;;
10902;SDS011;5504;47.312;11.060;2023-02-18T14:51:08;0.45;;;0.30;;
10902;SDS011;5504;47.312;11.060;2023-02-18T14:53:38;0.28;;;0.28;;
10902;SDS011;5504;47.312;11.060;2023-02-18T14:56:07;0.40;;;0.40;;
10902;SDS011;5504;47.312;11.060;2023-02-18T14:58:36;1.20;;;0.30;;
10902;SDS011;5504;47.312;11.060;2023-02-18T15:01:17;0.40;;;0.32;;
10902;SDS011;5504;47.312;11.060;2023-02-18T15:03:52;0.30;;;0.30;;
10902;SDS011;5504;47.312;11.060;2023-02-18T15:08:59;0.30;;;0.30;;
10902;SDS011;5504;47.312;11.060;2023-02-18T15:11:45;0.40;;;0.30;;
10902;SDS011;5504;47.312;11.060;2023-02-18T15:14:20;0.90;;;0.30;;
10902;SDS011;5504;47.312;11.060;2023-02-18T15:16:57;0.30;;;0.30;;
10902;SDS011;5504;47.312;11.060;2023-02-18T15:19:25;0.52;;;0.22;;
10902;SDS011;5504;47.312;11.060;2023-02-18T15:21:54;0.30;;;0.20;;
10902;SDS011;5504;47.312;11.060;2023-02-18T15:27:02;1.35;;;0.40;;
10902;SDS011;5504;47.312;11.060;2023-02-18T15:29:35;0.82;;;0.40;;
10902;SDS011;5504;47.312;11.060;2023-02-18T15:32:09;0.68;;;0.30;;
10902;SDS011;5504;47.312;11.060;2023-02-18T15:34:48;0.77;;;0.60;;
10902;SDS011;5504;47.312;11.060;2023-02-18T15:37:15;0.65;;;0.40;;
10902;SDS011;5504;47.312;11.060;2023-02-18T15:39:41;1.58;;;0.40;;
10902;SDS011;5504;47.312;11.060;2023-02-18T15:44:55;0.40;;;0.40;;
10902;SDS011;5504;47.312;11.060;2023-02-18T15:47:22;1.50;;;0.45;;
10902;SDS011;5504;47.312;11.060;2023-02-18T15:49:49;0.30;;;0.30;;
10902;SDS011;5504;47.312;11.060;2023-02-18T15:52:25;0.98;;;0.40;;
10902;SDS011;5504;47.312;11.060;2023-02-18T15:54:52;0.40;;;0.40;;
10902;SDS011;5504;47.312;11.060;2023-02-18T15:57:21;0.90;;;0.57;;
10902;SDS011;5504;47.312;11.060;2023-02-18T16:00:35;0.47;;;0.47;;
10902;SDS011;5504;47.312;11.060;2023-02-18T16:03:01;1.45;;;0.50;;
10902;SDS011;5504;47.312;11.060;2023-02-18T16:05:35;0.30;;;0.30;;
10902;SDS011;5504;47.312;11.060;2023-02-18T16:08:05;0.50;;;0.50;;
10902;SDS011;5504;47.312;11.060;2023-02-18T16:11:11;0.37;;;0.37;;
10902;SDS011;5504;47.312;11.060;2023-02-18T16:13:31;0.50;;;0.50;;
10902;SDS011;5504;47.312;11.060;2023-02-18T16:15:58;0.40;;;0.40;;
10902;SDS011;5504;47.312;11.060;2023-02-18T16:18:26;0.60;;;0.60;;
10902;SDS011;5504;47.312;11.060;2023-02-18T16:21:20;0.57;;;0.57;;
10902;SDS011;5504;47.312;11.060;2023-02-18T16:23:58;1.80;;;0.50;;
10902;SDS011;5504;47.312;11.060;2023-02-18T16:29:13;0.50;;;0.50;;
10902;SDS011;5504;47.312;11.060;2023-02-18T16:31:45;0.50;;;0.50;;
10902;SDS011;5504;47.312;11.060;2023-02-18T16:34:11;0.47;;;0.47;;
10902;SDS011;5504;47.312;11.060;2023-02-18T16:36:36;0.40;;;0.40;;
10902;SDS011;5504;47.312;11.060;2023-02-18T16:39:22;1.20;;;0.50;;
10902;SDS011;5504;47.312;11.060;2023-02-18T16:41:48;0.50;;;0.50;;
10902;SDS011;5504;47.312;11.060;2023-02-18T16:44:13;0.77;;;0.50;;
10902;SDS011;5504;47.312;11.060;2023-02-18T16:46:39;0.53;;;0.50;;
10902;SDS011;5504;47.312;11.060;2023-02-18T16:49:07;0.43;;;0.40;;
10902;SDS011;5504;47.312;11.060;2023-02-18T16:51:37;41.20;;;19.23;;
10902;SDS011;5504;47.312;11.060;2023-02-18T16:54:03;15.43;;;7.47;;
10902;SDS011;5504;47.312;11.060;2023-02-18T16:56:30;25.40;;;12.80;;
10902;SDS011;5504;47.312;11.060;2023-02-18T16:58:57;13.03;;;6.87;;
10902;SDS011;5504;47.312;11.060;2023-02-18T17:01:34;52.17;;;31.13;;
10902;SDS011;5504;47.312;11.060;2023-02-18T17:04:03;19.33;;;12.07;;
10902;SDS011;5504;47.312;11.060;2023-02-18T17:06:32;49.17;;;30.80;;
10902;SDS011;5504;47.312;11.060;2023-02-18T17:08:58;55.33;;;32.27;;
10902;SDS011;5504;47.312;11.060;2023-02-18T17:11:33;16.47;;;11.13;;
10902;SDS011;5504;47.312;11.060;2023-02-18T17:13:59;3.37;;;2.20;;
10902;SDS011;5504;47.312;11.060;2023-02-18T17:16:29;5.30;;;3.30;;
10902;SDS011;5504;47.312;11.060;2023-02-18T17:18:55;4.60;;;3.00;;
10902;SDS011;5504;47.312;11.060;2023-02-18T17:21:22;1.37;;;0.90;;
10902;SDS011;5504;47.312;11.060;2023-02-18T17:23:49;0.70;;;0.70;;
10902;SDS011;5504;47.312;11.060;2023-02-18T17:28:51;2.07;;;0.90;;
10902;SDS011;5504;47.312;11.060;2023-02-18T17:31:28;1.10;;;0.70;;
10902;SDS011;5504;47.312;11.060;2023-02-18T17:33:55;1.37;;;0.60;;
10902;SDS011;5504;47.312;11.060;2023-02-18T17:36:24;1.23;;;0.50;;